Time;durP1;ratioP1;P1;durP2;ratioP2;P2;SDS_P1;SDS_P2;PMS_P1;PMS_P2;Temp;Humidity;BMP_temperature;BMP_pressure;BME280_temperature;BME280_humidity;BME280_pressure;Samples;Min_cycle;Max_cycle;Signal;HPM_P1;HPM_P2
2023/04/15 00:02:15;;;;;;;8.13;5.60;;;7.00;99.90;;;;;;5100458;28;20202;-78
2023/04/15 00:04:41;;;;;;;8.80;5.33;;;7.00;99.90;;;;;;5099167;28;20247;-79
2023/04/15 00:07:08;;;;;;;7.83;5.10;;;6.90;99.90;;;;;;5099165;28;20554;-78
2023/04/15 00:09:37;;;;;;;8.50;5.30;;;7.00;99.90;;;;;;5098404;28;20222;-77
2023/04/15 00:12:04;;;;;;;8.27;5.43;;;6.90;99.90;;;;;;5098998;28;20201;-79
2023/04/15 00:14:31;;;;;;;6.43;4.83;;;6.80;99.90;;;;;;5097369;28;20238;-79
2023/04/15 00:16:58;;;;;;;7.33;4.80;;;6.80;99.90;;;;;;5097136;28;20204;-78
2023/04/15 00:19:25;;;;;;;8.03;5.03;;;6.80;99.90;;;;;;5098603;28;20208;-79
2023/04/15 00:21:52;;;;;;;11.50;5.33;;;6.90;99.90;;;;;;5099070;28;20209;-77
2023/04/15 00:24:18;;;;;;;8.27;5.03;;;6.90;99.90;;;;;;5100341;28;20222;-77
2023/04/15 00:26:46;;;;;;;7.93;5.17;;;6.90;99.90;;;;;;5099897;28;20663;-79
2023/04/15 00:29:14;;;;;;;6.87;4.93;;;6.90;99.90;;;;;;5099733;28;20233;-78
2023/04/15 00:31:41;;;;;;;8.13;5.00;;;6.90;99.90;;;;;;5098980;28;20293;-79
2023/04/15 00:34:08;;;;;;;7.97;5.10;;;6.90;99.90;;;;;;5100256;28;20781;-79
2023/04/15 00:36:35;;;;;;;7.80;5.27;;;6.90;99.90;;;;;;5101770;28;20212;-79
2023/04/15 00:39:02;;;;;;;9.27;5.53;;;6.90;99.90;;;;;;5100197;28;20239;-79
2023/04/15 00:41:29;;;;;;;8.50;5.63;;;6.90;99.90;;;;;;5101400;28;20601;-77
2023/04/15 00:43:58;;;;;;;7.57;5.30;;;6.90;99.90;;;;;;5100787;28;20593;-79
2023/04/15 00:46:27;;;;;;;8.70;5.80;;;6.90;99.90;;;;;;5100692;28;20209;-76
2023/04/15 00:48:54;;;;;;;7.13;5.07;;;6.90;99.90;;;;;;5099687;28;20224;-79
2023/04/15 00:51:21;;;;;;;9.97;5.10;;;7.00;99.90;;;;;;5101097;28;20205;-78
2023/04/15 00:53:48;;;;;;;10.27;5.30;;;7.00;99.90;;;;;;5101044;28;20232;-79
2023/04/15 00:56:16;;;;;;;9.43;5.60;;;7.00;99.90;;;;;;5099412;28;20297;-77
2023/04/15 00:58:42;;;;;;;9.37;5.47;;;7.00;99.90;;;;;;5081326;28;20197;-79
2023/04/15 01:01:11;;;;;;;10.10;4.90;;;7.00;99.90;;;;;;5087081;28;20202;-78
2023/04/15 01:03:37;;;;;;;7.87;5.20;;;6.90;99.90;;;;;;5090513;28;20226;-78
2023/04/15 01:06:04;;;;;;;7.43;5.10;;;6.90;99.90;;;;;;5100380;28;20202;-79
2023/04/15 01:08:31;;;;;;;10.23;5.37;;;6.90;99.90;;;;;;5097725;28;20217;-78
2023/04/15 01:11:02;;;;;;;9.40;6.53;;;7.00;99.90;;;;;;5100492;28;20205;-79
2023/04/15 01:13:30;;;;;;;9.70;5.40;;;7.00;99.90;;;;;;5094626;28;20201;-79
2023/04/15 01:15:57;;;;;;;8.57;4.97;;;7.00;99.90;;;;;;5098603;28;20304;-78
2023/04/15 01:18:26;;;;;;;8.43;5.07;;;7.00;99.90;;;;;;5099020;28;20197;-78
2023/04/15 01:20:53;;;;;;;7.43;4.80;;;7.00;99.90;;;;;;5100505;28;20273;-79
2023/04/15 01:23:20;;;;;;;9.30;5.20;;;7.00;99.90;;;;;;5099918;28;20204;-79
2023/04/15 01:25:49;;;;;;;8.27;5.03;;;6.90;99.90;;;;;;5095793;28;20294;-79
2023/04/15 01:28:16;;;;;;;8.10;5.10;;;6.90;99.90;;;;;;5080149;28;20580;-79
2023/04/15 01:30:43;;;;;;;9.33;5.00;;;6.90;99.90;;;;;;5079494;28;20202;-77
2023/04/15 01:33:10;;;;;;;9.40;5.60;;;7.00;99.90;;;;;;5080888;28;20659;-79
2023/04/15 01:35:37;;;;;;;10.17;5.93;;;7.00;99.90;;;;;;5087071;28;20226;-78
2023/04/15 01:38:06;;;;;;;8.50;5.47;;;7.00;99.90;;;;;;5079482;28;20202;-79
2023/04/15 01:40:33;;;;;;;9.37;5.33;;;7.00;99.90;;;;;;5083013;28;20206;-78
2023/04/15 01:43:02;;;;;;;8.97;5.00;;;7.00;99.90;;;;;;5098542;28;20209;-79
2023/04/15 01:45:29;;;;;;;9.00;5.43;;;7.10;99.90;;;;;;5100061;28;20780;-78
2023/04/15 01:47:56;;;;;;;9.77;6.07;;;7.10;99.90;;;;;;5096009;28;20899;-80
2023/04/15 01:50:24;;;;;;;10.67;6.00;;;7.10;99.90;;;;;;5098666;28;20218;-81
2023/04/15 01:52:51;;;;;;;11.73;6.00;;;7.00;99.90;;;;;;5100895;28;20233;-78
2023/04/15 01:55:18;;;;;;;9.37;5.60;;;7.10;99.90;;;;;;5081719;28;20300;-79
2023/04/15 01:57:46;;;;;;;9.70;5.70;;;7.10;99.90;;;;;;5093506;28;20206;-79
2023/04/15 02:00:15;;;;;;;12.30;6.23;;;7.10;99.90;;;;;;5100366;28;20692;-76
2023/04/15 02:02:42;;;;;;;10.83;6.07;;;7.10;99.90;;;;;;5100712;28;20669;-76
2023/04/15 02:05:09;;;;;;;9.00;4.97;;;7.20;99.90;;;;;;5099879;28;20312;-78
2023/04/15 02:07:36;;;;;;;11.40;6.57;;;7.20;99.90;;;;;;5080445;28;20723;-77
2023/04/15 02:10:03;;;;;;;10.90;5.83;;;7.10;99.90;;;;;;5080140;28;20229;-79
2023/04/15 02:12:30;;;;;;;10.47;6.27;;;7.20;99.90;;;;;;5080313;28;20199;-76
2023/04/15 02:14:57;;;;;;;10.63;6.07;;;7.30;99.90;;;;;;5080440;28;20781;-79
2023/04/15 02:17:25;;;;;;;10.87;6.10;;;7.10;99.90;;;;;;5088500;28;20316;-78
2023/04/15 02:19:52;;;;;;;12.27;6.80;;;7.20;99.90;;;;;;5099830;28;20227;-79
2023/04/15 02:22:19;;;;;;;13.57;7.03;;;7.20;99.90;;;;;;5101007;28;20225;-79
2023/04/15 02:24:46;;;;;;;11.83;6.37;;;7.30;99.90;;;;;;5099588;28;20222;-78
2023/04/15 02:27:17;;;;;;;13.23;7.17;;;7.20;99.90;;;;;;5091192;28;20234;-78
2023/04/15 02:29:44;;;;;;;11.47;6.20;;;7.30;99.90;;;;;;5091664;28;20213;-78
2023/04/15 02:32:11;;;;;;;12.10;6.87;;;7.30;99.90;;;;;;5100192;28;20198;-79
2023/04/15 02:34:41;;;;;;;11.63;6.60;;;7.30;99.90;;;;;;5094184;28;20227;-79
2023/04/15 02:37:08;;;;;;;14.80;7.70;;;7.30;99.90;;;;;;5095162;28;20643;-79
2023/04/15 02:39:35;;;;;;;12.30;7.43;;;7.20;99.90;;;;;;5099133;28;20225;-79
2023/04/15 02:42:03;;;;;;;13.80;7.70;;;7.40;99.90;;;;;;5083699;28;20206;-79
2023/04/15 02:44:31;;;;;;;13.53;7.60;;;7.30;99.90;;;;;;5081407;28;20226;-79
2023/04/15 02:46:58;;;;;;;14.20;7.63;;;7.30;99.90;;;;;;5082573;28;20212;-78
2023/04/15 02:49:25;;;;;;;15.10;7.90;;;7.30;99.90;;;;;;5082338;28;20222;-79
2023/04/15 02:51:54;;;;;;;15.07;8.17;;;7.30;99.90;;;;;;5082368;28;20293;-78
2023/04/15 02:54:22;;;;;;;14.70;7.77;;;7.30;99.90;;;;;;5097518;28;20284;-78
2023/04/15 02:56:49;;;;;;;17.07;9.03;;;7.30;99.90;;;;;;5093063;28;20270;-79
2023/04/15 02:59:15;;;;;;;17.77;8.40;;;7.30;99.90;;;;;;5093875;28;20220;-79
2023/04/15 03:01:42;;;;;;;18.23;8.00;;;7.40;99.90;;;;;;5090438;28;20201;-77
2023/04/15 03:04:09;;;;;;;16.87;8.03;;;7.40;99.90;;;;;;5096982;28;20660;-78
2023/04/15 03:06:36;;;;;;;16.20;9.10;;;7.30;99.90;;;;;;5101431;28;20202;-79
2023/04/15 03:09:04;;;;;;;15.73;8.53;;;7.30;99.90;;;;;;5096119;28;20633;-78
2023/04/15 03:11:31;;;;;;;15.90;7.90;;;7.40;99.90;;;;;;5102219;28;20249;-79
2023/04/15 03:13:58;;;;;;;14.60;7.53;;;7.40;99.90;;;;;;5082499;28;20655;-79
2023/04/15 03:16:26;;;;;;;16.40;8.37;;;7.40;99.90;;;;;;5082204;28;20585;-77
2023/04/15 03:18:52;;;;;;;16.27;7.80;;;7.30;99.90;;;;;;5081606;28;20202;-78
2023/04/15 03:21:19;;;;;;;14.97;8.50;;;7.30;99.90;;;;;;5096532;28;20202;-77
2023/04/15 03:23:46;;;;;;;16.80;8.13;;;7.30;99.90;;;;;;5102012;28;20205;-79
2023/04/15 03:26:27;;;;;;;15.80;8.27;;;7.40;99.90;;;;;;5100866;28;20197;-77
2023/04/15 03:28:54;;;;;;;15.10;7.93;;;7.30;99.90;;;;;;5101280;28;20201;-79
2023/04/15 03:31:21;;;;;;;17.17;8.10;;;7.30;99.90;;;;;;5086876;28;20198;-79
2023/04/15 03:33:47;;;;;;;16.90;8.70;;;7.30;99.90;;;;;;5097611;28;20201;-76
2023/04/15 03:36:15;;;;;;;17.97;9.10;;;7.30;99.90;;;;;;5080063;28;20206;-78
2023/04/15 03:38:41;;;;;;;19.07;8.40;;;7.20;99.90;;;;;;5077902;28;20289;-79
2023/04/15 03:41:08;;;;;;;18.00;9.60;;;7.20;99.90;;;;;;5081046;28;20202;-77
2023/04/15 03:43:36;;;;;;;18.30;9.67;;;7.20;99.90;;;;;;5099226;28;20201;-79
2023/04/15 03:46:03;;;;;;;16.53;8.80;;;7.40;99.90;;;;;;5088498;28;20754;-79
2023/04/15 03:48:30;;;;;;;17.33;9.50;;;7.20;99.90;;;;;;5084281;28;20620;-76
2023/04/15 03:50:57;;;;;;;17.77;9.63;;;7.20;99.90;;;;;;5082968;28;20228;-78
2023/04/15 03:53:24;;;;;;;17.63;9.83;;;7.10;99.90;;;;;;5100651;28;20264;-81
2023/04/15 03:55:51;;;;;;;19.70;10.23;;;7.10;99.90;;;;;;5089192;28;20225;-76
2023/04/15 03:58:18;;;;;;;17.73;9.30;;;7.10;99.90;;;;;;5091669;28;20217;-80
2023/04/15 04:00:46;;;;;;;18.53;9.83;;;7.00;99.90;;;;;;5092856;28;20280;-80
2023/04/15 04:03:13;;;;;;;18.50;9.97;;;6.90;99.90;;;;;;5090174;28;20217;-80
2023/04/15 04:05:40;;;;;;;19.87;10.43;;;7.00;99.90;;;;;;5092172;28;20229;-78
2023/04/15 04:08:07;;;;;;;21.07;10.87;;;6.90;99.90;;;;;;5083652;28;20714;-78
2023/04/15 04:10:34;;;;;;;20.40;10.47;;;6.80;99.90;;;;;;5096900;28;20226;-81
2023/04/15 04:13:01;;;;;;;20.47;10.80;;;6.80;99.90;;;;;;5096377;28;20213;-81
2023/04/15 04:15:28;;;;;;;18.53;10.43;;;6.70;99.90;;;;;;5102607;28;20222;-79
2023/04/15 04:17:56;;;;;;;19.53;10.60;;;6.70;99.90;;;;;;5101352;28;20264;-78
2023/04/15 04:20:23;;;;;;;20.50;10.30;;;6.70;99.90;;;;;;5104118;28;20289;-80
2023/04/15 04:22:50;;;;;;;20.83;11.20;;;6.60;99.90;;;;;;5100340;28;20234;-81
2023/04/15 04:25:17;;;;;;;21.23;11.10;;;6.60;99.90;;;;;;5092309;28;20217;-82
2023/04/15 04:27:45;;;;;;;20.40;10.77;;;6.60;99.90;;;;;;5098111;28;20300;-79
2023/04/15 04:30:12;;;;;;;20.83;11.40;;;6.60;99.90;;;;;;5083054;28;20245;-80
2023/04/15 04:32:39;;;;;;;19.90;11.63;;;6.60;99.90;;;;;;5083481;28;20233;-81
2023/04/15 04:35:08;;;;;;;20.40;11.13;;;6.60;99.90;;;;;;5084539;28;20272;-78
2023/04/15 04:37:35;;;;;;;22.57;11.73;;;6.50;99.90;;;;;;5093491;28;20225;-80
2023/04/15 04:40:02;;;;;;;21.17;12.03;;;6.60;99.90;;;;;;5103031;28;20745;-79
2023/04/15 04:42:30;;;;;;;22.67;12.17;;;6.60;99.90;;;;;;5088884;28;20202;-80
2023/04/15 04:44:57;;;;;;;22.67;12.23;;;6.50;99.90;;;;;;5103218;28;20227;-77
2023/04/15 04:47:24;;;;;;;23.30;12.47;;;6.50;99.90;;;;;;5099690;28;20221;-79
2023/04/15 04:49:50;;;;;;;23.93;12.53;;;6.50;99.90;;;;;;5083149;28;20226;-79
2023/04/15 04:52:19;;;;;;;24.00;13.03;;;6.40;99.90;;;;;;5082584;28;20202;-80
2023/04/15 04:54:46;;;;;;;24.30;12.83;;;6.40;99.90;;;;;;5081710;28;20230;-81
2023/04/15 04:57:13;;;;;;;25.43;12.77;;;6.40;99.90;;;;;;5080897;28;20209;-82
2023/04/15 04:59:40;;;;;;;25.93;13.83;;;6.30;99.90;;;;;;5092025;28;20223;-80
2023/04/15 05:02:07;;;;;;;25.30;13.27;;;6.40;99.90;;;;;;5083646;28;20271;-78
2023/04/15 05:04:34;;;;;;;25.33;14.27;;;6.30;99.90;;;;;;5083159;28;20229;-82
2023/04/15 05:07:01;;;;;;;28.00;14.10;;;6.30;99.90;;;;;;5087659;28;20206;-82
2023/04/15 05:09:31;;;;;;;26.20;13.90;;;6.30;99.90;;;;;;5088696;28;20214;-80
2023/04/15 05:11:58;;;;;;;26.17;13.87;;;6.30;99.90;;;;;;5082210;28;20194;-78
2023/04/15 05:14:25;;;;;;;26.10;14.40;;;6.30;99.90;;;;;;5081593;28;20247;-80
2023/04/15 05:16:51;;;;;;;27.23;14.83;;;6.30;99.90;;;;;;5084815;28;20260;-80
2023/04/15 05:19:18;;;;;;;29.17;14.47;;;6.30;99.90;;;;;;5090697;28;20193;-80
2023/04/15 05:21:45;;;;;;;25.13;13.33;;;6.30;99.90;;;;;;5080952;28;20669;-80
2023/04/15 05:24:12;;;;;;;27.63;14.63;;;6.30;99.90;;;;;;5080806;28;20900;-80
2023/04/15 05:26:40;;;;;;;26.77;13.80;;;6.30;99.90;;;;;;5089182;28;20646;-77
2023/04/15 05:29:07;;;;;;;27.77;14.53;;;6.20;99.90;;;;;;5079316;28;20281;-80
2023/04/15 05:31:34;;;;;;;27.10;14.80;;;6.20;99.90;;;;;;5091191;28;20232;-79
2023/04/15 05:34:01;;;;;;;27.90;14.63;;;6.30;99.90;;;;;;5087535;28;20272;-80
2023/04/15 05:36:28;;;;;;;27.67;14.63;;;6.30;99.90;;;;;;5090962;28;20206;-80
2023/04/15 05:38:55;;;;;;;26.37;14.00;;;6.20;99.90;;;;;;5092574;28;20202;-80
2023/04/15 05:41:22;;;;;;;26.63;13.80;;;6.20;99.90;;;;;;5086637;28;20202;-81
2023/04/15 05:43:50;;;;;;;28.20;15.57;;;6.20;99.90;;;;;;5089996;28;20223;-81
2023/04/15 05:46:17;;;;;;;24.93;13.03;;;6.20;99.90;;;;;;5087365;28;20248;-81
2023/04/15 05:48:43;;;;;;;24.37;13.20;;;6.20;99.90;;;;;;5083739;28;20285;-80
2023/04/15 05:51:10;;;;;;;23.43;12.83;;;6.10;99.90;;;;;;5095805;28;20225;-81
2023/04/15 05:53:37;;;;;;;24.30;13.57;;;6.20;99.90;;;;;;5095515;28;20208;-78
2023/04/15 05:56:04;;;;;;;23.50;13.33;;;6.20;99.90;;;;;;5094589;28;20210;-81
2023/04/15 05:58:31;;;;;;;25.30;13.17;;;6.10;99.90;;;;;;5097185;28;20572;-82
2023/04/15 06:00:59;;;;;;;23.33;12.87;;;6.20;99.90;;;;;;5099637;28;20258;-82
2023/04/15 06:03:26;;;;;;;24.83;13.00;;;6.20;99.90;;;;;;5097276;28;20202;-81
2023/04/15 06:05:53;;;;;;;23.63;13.10;;;6.10;99.90;;;;;;5101126;28;20225;-83
2023/04/15 06:08:20;;;;;;;23.80;13.40;;;6.20;99.90;;;;;;5087368;28;20636;-79
2023/04/15 06:10:47;;;;;;;26.03;13.20;;;6.10;99.90;;;;;;5086886;28;20229;-79
2023/04/15 06:13:15;;;;;;;24.20;12.93;;;6.30;99.90;;;;;;5080264;28;20798;-82
2023/04/15 06:15:42;;;;;;;23.30;12.57;;;6.20;99.90;;;;;;5085524;28;20763;-79
2023/04/15 06:18:11;;;;;;;23.73;12.47;;;6.20;99.90;;;;;;5101556;28;20225;-82
2023/04/15 06:20:38;;;;;;;22.17;11.90;;;6.20;99.90;;;;;;5094247;28;20202;-80
2023/04/15 06:23:05;;;;;;;21.53;11.80;;;6.20;99.90;;;;;;5082880;28;20581;-83
2023/04/15 06:25:32;;;;;;;22.20;12.27;;;6.30;99.90;;;;;;5091776;28;20221;-83
2023/04/15 06:27:59;;;;;;;23.83;13.23;;;6.20;99.90;;;;;;5091031;28;20297;-79
2023/04/15 06:30:26;;;;;;;21.77;11.70;;;6.20;99.90;;;;;;5098577;28;20755;-81
2023/04/15 06:32:54;;;;;;;19.00;10.77;;;6.20;99.90;;;;;;5092686;28;20288;-80
2023/04/15 06:35:23;;;;;;;21.17;11.47;;;6.10;99.90;;;;;;5087833;28;20267;-81
2023/04/15 06:37:50;;;;;;;21.07;11.10;;;6.30;99.90;;;;;;5086315;28;20197;-81
2023/04/15 06:40:17;;;;;;;20.87;10.43;;;6.20;99.90;;;;;;5081439;28;20283;-79
2023/04/15 06:42:44;;;;;;;20.20;11.07;;;6.20;99.90;;;;;;5098816;28;20646;-78
2023/04/15 06:45:11;;;;;;;18.50;10.07;;;6.20;99.90;;;;;;5083208;28;20236;-78
2023/04/15 06:47:39;;;;;;;20.63;10.47;;;6.20;99.90;;;;;;5088391;28;20207;-80
2023/04/15 06:50:08;;;;;;;20.10;10.93;;;6.20;99.90;;;;;;5083616;28;20619;-83
2023/04/15 06:52:36;;;;;;;19.00;9.90;;;6.20;99.90;;;;;;5102635;28;20201;-82
2023/04/15 06:55:04;;;;;;;19.90;11.00;;;6.20;99.90;;;;;;5102107;28;20300;-80
2023/04/15 06:57:30;;;;;;;18.53;10.13;;;6.20;99.90;;;;;;5092764;28;20240;-82
2023/04/15 06:59:57;;;;;;;17.97;9.13;;;6.20;99.90;;;;;;5088269;28;20499;-81
2023/04/15 07:02:24;;;;;;;18.93;9.87;;;6.20;99.90;;;;;;5085119;28;20206;-81
2023/04/15 07:04:51;;;;;;;16.43;8.83;;;6.20;99.90;;;;;;5093421;28;20316;-80
2023/04/15 07:07:18;;;;;;;16.33;9.13;;;6.20;99.90;;;;;;5102196;28;20555;-80
2023/04/15 07:09:46;;;;;;;14.47;8.17;;;6.20;99.90;;;;;;5100545;28;20210;-80
2023/04/15 07:12:13;;;;;;;16.07;9.07;;;6.20;99.90;;;;;;5093548;28;20183;-79
2023/04/15 07:14:40;;;;;;;15.63;8.10;;;6.20;99.90;;;;;;5081062;28;20218;-79
2023/04/15 07:17:07;;;;;;;15.90;9.13;;;6.30;99.90;;;;;;5098107;28;20225;-78
2023/04/15 07:19:33;;;;;;;16.93;9.17;;;6.30;99.90;;;;;;5089360;28;20208;-82
2023/04/15 07:22:01;;;;;;;18.90;9.47;;;6.30;99.90;;;;;;5084513;28;20236;-82
2023/04/15 07:24:27;;;;;;;17.67;9.83;;;6.30;99.90;;;;;;5096282;28;20249;-83
2023/04/15 07:26:56;;;;;;;17.27;9.33;;;6.30;99.90;;;;;;5083703;28;20194;-82
2023/04/15 07:29:23;;;;;;;16.77;9.10;;;6.30;99.90;;;;;;5099415;28;20201;-80
2023/04/15 07:31:50;;;;;;;17.17;9.00;;;6.40;99.90;;;;;;5100293;28;20666;-81
2023/04/15 07:34:19;;;;;;;15.97;9.33;;;6.30;99.90;;;;;;5100617;28;20709;-79
2023/04/15 07:36:49;;;;;;;16.63;9.27;;;6.40;99.90;;;;;;5094646;28;20202;-82
2023/04/15 07:39:16;;;;;;;14.47;8.67;;;6.40;99.90;;;;;;5101273;28;20212;-81
2023/04/15 07:41:42;;;;;;;15.83;8.63;;;6.40;99.90;;;;;;5086347;28;20239;-80
2023/04/15 07:44:11;;;;;;;15.37;8.53;;;6.50;99.90;;;;;;5080373;28;20226;-82
2023/04/15 07:46:38;;;;;;;14.03;8.07;;;6.40;99.90;;;;;;5079195;28;20634;-82
2023/04/15 07:49:05;;;;;;;15.23;8.50;;;6.40;99.90;;;;;;5077204;28;20209;-83
2023/04/15 07:51:32;;;;;;;14.00;8.43;;;6.50;99.90;;;;;;5090050;28;20301;-82
2023/04/15 07:53:58;;;;;;;15.03;8.33;;;6.40;99.90;;;;;;5097646;28;20316;-84
2023/04/15 07:56:26;;;;;;;14.30;8.30;;;6.40;99.90;;;;;;5097463;28;20206;-84
2023/04/15 07:58:53;;;;;;;13.67;7.87;;;6.40;99.90;;;;;;5097609;28;20210;-81
2023/04/15 08:01:21;;;;;;;13.43;7.90;;;6.50;99.90;;;;;;5081987;28;20194;-79
2023/04/15 08:03:48;;;;;;;13.10;7.57;;;6.50;99.90;;;;;;5093413;28;20210;-82
2023/04/15 08:06:15;;;;;;;13.37;7.90;;;6.50;99.90;;;;;;5100619;28;20228;-82
2023/04/15 08:08:42;;;;;;;13.60;8.30;;;6.60;99.90;;;;;;5096806;28;20604;-83
2023/04/15 08:11:09;;;;;;;12.00;7.10;;;6.50;99.90;;;;;;5098199;28;20320;-80
2023/04/15 08:13:36;;;;;;;12.87;7.50;;;6.50;99.90;;;;;;5091526;28;20206;-82
2023/04/15 08:16:21;;;;;;;13.40;7.73;;;6.50;99.90;;;;;;5097687;28;20588;-79
2023/04/15 08:18:50;;;;;;;12.73;7.17;;;6.60;99.90;;;;;;5097198;28;20194;-81
2023/04/15 08:21:18;;;;;;;13.77;8.10;;;6.50;99.90;;;;;;5097699;28;20221;-81
2023/04/15 08:23:47;;;;;;;12.63;7.33;;;6.60;99.90;;;;;;5097013;28;20208;-80
2023/04/15 08:26:14;;;;;;;13.37;7.97;;;6.60;99.90;;;;;;5097523;28;20211;-77
2023/04/15 08:28:42;;;;;;;10.30;6.97;;;6.70;99.90;;;;;;5098006;28;20207;-80
2023/04/15 08:31:09;;;;;;;9.87;6.53;;;6.90;99.90;;;;;;5098890;28;20267;-78
2023/04/15 08:33:36;;;;;;;11.63;7.23;;;6.70;99.90;;;;;;5090195;28;20285;-79
2023/04/15 08:36:06;;;;;;;11.37;6.47;;;6.70;99.90;;;;;;5087031;28;20716;-79
2023/04/15 08:38:33;;;;;;;9.33;5.60;;;6.70;99.90;;;;;;5079549;28;20202;-82
2023/04/15 08:41:03;;;;;;;8.83;5.70;;;6.60;99.90;;;;;;5081319;28;20254;-78
2023/04/15 08:43:35;;;;;;;7.73;5.00;;;6.70;99.90;;;;;;5098404;28;20196;-79
2023/04/15 08:46:02;;;;;;;7.90;4.83;;;6.60;99.90;;;;;;5099520;28;20217;-81
2023/04/15 08:48:32;;;;;;;7.33;4.67;;;6.60;99.90;;;;;;5100009;28;20236;-82
2023/04/15 08:50:59;;;;;;;7.27;4.60;;;6.70;99.90;;;;;;5091838;28;20233;-83
2023/04/15 08:53:29;;;;;;;8.80;5.00;;;6.70;99.90;;;;;;5093993;28;20287;-86
2023/04/15 08:55:57;;;;;;;6.77;4.80;;;6.60;99.90;;;;;;5096881;28;20232;-82
2023/04/15 08:58:25;;;;;;;7.57;5.30;;;6.70;99.90;;;;;;5091992;28;20206;-81
2023/04/15 09:00:51;;;;;;;7.63;4.93;;;6.80;99.90;;;;;;5081317;28;20297;-82
2023/04/15 09:03:18;;;;;;;8.07;4.93;;;6.80;99.90;;;;;;5095648;28;20209;-80
2023/04/15 09:05:46;;;;;;;6.33;4.37;;;6.70;99.90;;;;;;5080035;28;20284;-80
2023/04/15 09:08:13;;;;;;;6.27;4.20;;;6.70;99.90;;;;;;5078330;28;20213;-79
2023/04/15 09:10:41;;;;;;;5.43;4.00;;;6.70;99.90;;;;;;5079126;28;20289;-81
2023/04/15 09:13:08;;;;;;;7.53;5.33;;;6.80;99.90;;;;;;5084627;28;20194;-83
2023/04/15 09:15:38;;;;;;;5.60;4.00;;;6.70;99.90;;;;;;5093482;28;20218;-81
2023/04/15 09:18:05;;;;;;;5.10;3.83;;;6.80;99.90;;;;;;5080470;28;20288;-83
2023/04/15 09:20:39;;;;;;;5.77;3.90;;;6.80;99.90;;;;;;5081088;28;20202;-80
2023/04/15 09:23:13;;;;;;;9.90;5.73;;;6.80;99.90;;;;;;5079800;28;20182;-81
2023/04/15 09:25:42;;;;;;;5.33;3.60;;;6.90;99.90;;;;;;5079718;28;20617;-82
2023/04/15 09:28:09;;;;;;;5.17;3.63;;;6.80;99.90;;;;;;5099403;28;20267;-82
2023/04/15 09:30:35;;;;;;;5.20;3.50;;;7.00;99.90;;;;;;5081639;28;20209;-82
2023/04/15 09:33:06;;;;;;;6.20;3.80;;;6.90;99.90;;;;;;5093282;28;20248;-80
2023/04/15 09:35:35;;;;;;;5.13;3.70;;;6.90;99.90;;;;;;5101691;28;20213;-79
2023/04/15 09:38:06;;;;;;;5.63;3.93;;;6.90;99.90;;;;;;5092396;28;20202;-81
2023/04/15 09:40:35;;;;;;;5.70;3.40;;;7.00;99.90;;;;;;5100145;28;20221;-80
2023/04/15 09:43:04;;;;;;;5.67;3.83;;;7.00;99.90;;;;;;5100424;28;20281;-81
2023/04/15 09:45:32;;;;;;;5.93;4.13;;;7.00;99.90;;;;;;5083638;28;20273;-79
2023/04/15 09:47:59;;;;;;;7.27;4.60;;;7.00;99.90;;;;;;5098661;28;20198;-78
2023/04/15 09:50:28;;;;;;;5.80;4.00;;;7.10;99.90;;;;;;5096439;28;20269;-82
2023/04/15 09:52:56;;;;;;;6.57;4.17;;;7.10;99.90;;;;;;5083525;28;20282;-80
2023/04/15 09:55:23;;;;;;;6.73;4.20;;;7.10;99.90;;;;;;5093051;28;20221;-79
2023/04/15 09:57:50;;;;;;;7.27;5.00;;;7.20;99.90;;;;;;5089522;28;20209;-81
2023/04/15 10:00:18;;;;;;;7.37;4.50;;;7.20;99.90;;;;;;5089529;28;20273;-82
2023/04/15 10:02:47;;;;;;;9.97;4.47;;;7.30;99.90;;;;;;5086976;28;20278;-79
2023/04/15 10:05:15;;;;;;;7.10;4.17;;;7.30;99.90;;;;;;5085905;28;20225;-82
2023/04/15 10:07:43;;;;;;;7.90;5.00;;;7.10;99.90;;;;;;5087382;28;20198;-79
2023/04/15 10:10:11;;;;;;;8.20;4.77;;;7.20;99.90;;;;;;5104811;28;20300;-78
2023/04/15 10:12:40;;;;;;;8.07;4.93;;;7.30;99.90;;;;;;5097792;28;20217;-79
2023/04/15 10:15:14;;;;;;;8.83;5.20;;;7.40;99.90;;;;;;5100825;28;20685;-79
2023/04/15 10:17:44;;;;;;;9.10;5.43;;;7.30;99.90;;;;;;5099358;28;20201;-81
2023/04/15 10:20:13;;;;;;;10.07;5.70;;;7.30;99.90;;;;;;5102196;28;20229;-78
2023/04/15 10:22:41;;;;;;;9.23;5.37;;;7.30;99.90;;;;;;5107072;28;20198;-78
2023/04/15 10:25:10;;;;;;;10.33;5.80;;;7.40;99.90;;;;;;5098387;28;20214;-80
2023/04/15 10:27:40;;;;;;;9.87;5.73;;;7.40;99.90;;;;;;5095952;28;20232;-80
2023/04/15 10:30:08;;;;;;;13.17;6.37;;;7.30;99.90;;;;;;5088205;28;20194;-81
2023/04/15 10:32:36;;;;;;;10.80;6.10;;;7.30;99.90;;;;;;5104482;28;20248;-81
2023/04/15 10:35:06;;;;;;;10.50;6.10;;;7.40;99.90;;;;;;5096653;28;20221;-78
2023/04/15 10:37:35;;;;;;;13.87;6.87;;;7.60;99.90;;;;;;5100938;28;20224;-79
2023/04/15 10:40:24;;;;;;;12.57;6.67;;;7.50;99.90;;;;;;5102787;28;20239;-79
2023/04/15 10:42:51;;;;;;;14.33;6.97;;;7.50;99.90;;;;;;5100997;28;20229;-80
2023/04/15 10:45:20;;;;;;;13.17;6.97;;;7.50;99.90;;;;;;5099366;28;20222;-80
2023/04/15 10:47:53;;;;;;;12.60;6.83;;;7.60;99.90;;;;;;5091125;28;20682;-81
2023/04/15 10:50:21;;;;;;;12.90;7.03;;;7.40;99.90;;;;;;5097840;28;20224;-81
2023/04/15 10:52:51;;;;;;;15.27;7.83;;;7.50;99.90;;;;;;5094422;28;20222;-81
2023/04/15 10:55:21;;;;;;;13.27;7.30;;;7.50;99.90;;;;;;5101850;28;20217;-81
2023/04/15 10:57:52;;;;;;;17.93;8.23;;;7.50;99.90;;;;;;5086163;28;20220;-81
2023/04/15 11:00:21;;;;;;;17.33;8.83;;;7.40;99.90;;;;;;5085303;28;20191;-79
2023/04/15 11:02:52;;;;;;;18.13;8.87;;;7.40;99.90;;;;;;5094562;28;20213;-80
2023/04/15 11:05:22;;;;;;;20.47;9.83;;;7.50;99.90;;;;;;5100650;28;20210;-80
2023/04/15 11:07:51;;;;;;;16.20;8.23;;;7.50;99.90;;;;;;5098558;28;20643;-81
2023/04/15 11:10:55;;;;;;;18.07;8.87;;;7.60;99.90;;;;;;5088814;28;20602;-80
2023/04/15 11:13:28;;;;;;;17.80;9.80;;;7.60;99.90;;;;;;5107361;28;20221;-80
2023/04/15 11:16:00;;;;;;;17.80;9.70;;;7.60;99.90;;;;;;5089974;28;20706;-79
2023/04/15 11:18:30;;;;;;;22.10;11.80;;;7.70;99.90;;;;;;5092446;28;20205;-80
2023/04/15 11:21:00;;;;;;;24.30;14.13;;;7.80;99.90;;;;;;5090886;28;20207;-79
2023/04/15 11:23:36;;;;;;;23.33;12.53;;;7.70;99.90;;;;;;5093991;28;20193;-80
2023/04/15 11:26:08;;;;;;;22.47;11.83;;;7.80;99.90;;;;;;5102658;28;20240;-78
2023/04/15 11:28:35;;;;;;;24.13;12.23;;;7.90;99.90;;;;;;5087816;28;20222;-78
2023/04/15 11:31:10;;;;;;;23.00;11.73;;;7.70;99.90;;;;;;5092972;28;20265;-79
2023/04/15 11:33:37;;;;;;;21.70;11.10;;;7.80;99.90;;;;;;5104045;28;20663;-77
2023/04/15 11:36:06;;;;;;;24.67;12.80;;;7.80;99.90;;;;;;5105808;28;20198;-81
2023/04/15 11:38:34;;;;;;;25.53;13.07;;;7.70;99.90;;;;;;5097525;28;20212;-80
2023/04/15 11:41:01;;;;;;;27.63;13.30;;;7.90;99.90;;;;;;5099860;28;20321;-79
2023/04/15 11:43:32;;;;;;;25.70;14.03;;;7.80;99.90;;;;;;5091421;28;20223;-78
2023/04/15 11:46:01;;;;;;;26.23;13.43;;;7.90;99.90;;;;;;5091101;28;20226;-80
2023/04/15 11:48:30;;;;;;;27.73;14.33;;;7.90;99.90;;;;;;5094106;28;20194;-81
2023/04/15 11:50:58;;;;;;;28.90;14.93;;;7.90;99.90;;;;;;5097942;28;20317;-79
2023/04/15 11:53:41;;;;;;;35.10;16.70;;;7.90;99.90;;;;;;5085445;28;20706;-78
2023/04/15 11:56:09;;;;;;;33.80;16.83;;;7.90;99.90;;;;;;5085956;28;20230;-80
2023/04/15 11:58:38;;;;;;;30.27;15.20;;;7.90;99.90;;;;;;5091829;28;20197;-81
2023/04/15 12:01:06;;;;;;;31.33;16.00;;;7.90;99.90;;;;;;5096579;28;20202;-81
2023/04/15 12:03:37;;;;;;;33.97;16.10;;;8.00;99.90;;;;;;5090358;28;20195;-80
2023/04/15 12:06:15;;;;;;;33.10;17.07;;;7.90;99.90;;;;;;5101849;28;20237;-80
2023/04/15 12:09:00;;;;;;;33.70;16.57;;;8.00;99.90;;;;;;5097353;28;20216;-80
2023/04/15 12:11:32;;;;;;;32.63;15.80;;;7.90;99.90;;;;;;5104488;28;20300;-80
2023/04/15 12:14:06;;;;;;;32.60;16.57;;;7.90;99.90;;;;;;5104831;28;20868;-79
2023/04/15 12:16:34;;;;;;;38.87;18.57;;;7.90;99.90;;;;;;5103871;28;20213;-80
2023/04/15 12:19:06;;;;;;;37.67;19.70;;;8.00;99.90;;;;;;5103840;28;20201;-80
2023/04/15 12:21:38;;;;;;;35.90;17.70;;;8.00;99.90;;;;;;5104495;28;20182;-82
2023/04/15 12:24:08;;;;;;;37.20;18.80;;;8.00;99.90;;;;;;5102385;28;20225;-81
2023/04/15 12:26:38;;;;;;;39.23;19.70;;;8.00;99.90;;;;;;5104682;28;20214;-81
2023/04/15 12:29:07;;;;;;;40.67;20.33;;;8.00;99.90;;;;;;5102086;28;20201;-80
2023/04/15 12:31:35;;;;;;;36.10;19.57;;;8.00;99.90;;;;;;5099647;28;20242;-80
2023/04/15 12:34:02;;;;;;;42.00;22.57;;;8.10;99.90;;;;;;5086101;28;20227;-80
2023/04/15 12:36:34;;;;;;;40.93;21.60;;;8.00;99.90;;;;;;5096210;28;20218;-79
2023/04/15 12:39:02;;;;;;;48.20;22.93;;;8.00;99.90;;;;;;5103494;28;20218;-79
2023/04/15 12:41:30;;;;;;;44.47;22.50;;;8.00;99.90;;;;;;5093934;28;20285;-80
2023/04/15 12:43:57;;;;;;;40.93;21.43;;;8.00;99.90;;;;;;5104461;28;20577;-82
2023/04/15 12:46:24;;;;;;;43.50;22.03;;;8.10;99.90;;;;;;5093056;28;20206;-80
2023/04/15 12:48:52;;;;;;;42.60;22.93;;;8.10;99.90;;;;;;5093368;28;20205;-80
2023/04/15 12:51:20;;;;;;;45.30;23.83;;;8.10;99.90;;;;;;5096999;28;20228;-80